sensor_id;sensor_type;location;lat;lon;timestamp;P1;durP1;ratioP1;P2;durP2;ratioP2
44046;SDS011;29713;-33.888;151.150;2023-05-20T00:01:08;4.27;;;2.13;;
44046;SDS011;29713;-33.888;151.150;2023-05-20T00:03:36;3.13;;;2.10;;
44046;SDS011;29713;-33.888;151.150;2023-05-20T00:06:03;3.40;;;2.33;;
44046;SDS011;29713;-33.888;151.150;2023-05-20T00:08:30;2.20;;;1.93;;
44046;SDS011;29713;-33.888;151.150;2023-05-20T00:10:58;5.87;;;2.00;;
44046;SDS011;29713;-33.888;151.150;2023-05-20T00:13:25;2.60;;;1.73;;
44046;SDS011;29713;-33.888;151.150;2023-05-20T00:15:52;3.80;;;1.63;;
44046;SDS011;29713;-33.888;151.150;2023-05-20T00:18:20;2.20;;;1.70;;
44046;SDS011;29713;-33.888;151.150;2023-05-20T00:20:47;2.60;;;1.80;;
44046;SDS011;29713;-33.888;151.150;2023-05-20T00:23:15;2.97;;;1.87;;
44046;SDS011;29713;-33.888;151.150;2023-05-20T00:25:42;2.57;;;1.87;;
44046;SDS011;29713;-33.888;151.150;2023-05-20T00:28:09;2.90;;;1.50;;
44046;SDS011;29713;-33.888;151.150;2023-05-20T00:30:39;2.87;;;1.80;;
44046;SDS011;29713;-33.888;151.150;2023-05-20T00:33:07;4.00;;;1.70;;
44046;SDS011;29713;-33.888;151.150;2023-05-20T00:35:35;3.13;;;1.60;;
44046;SDS011;29713;-33.888;151.150;2023-05-20T00:38:02;2.37;;;1.80;;
44046;SDS011;29713;-33.888;151.150;2023-05-20T00:40:30;5.22;;;1.55;;
44046;SDS011;29713;-33.888;151.150;2023-05-20T00:42:57;1.70;;;0.90;;
44046;SDS011;29713;-33.888;151.150;2023-05-20T00:45:24;2.45;;;1.00;;
44046;SDS011;29713;-33.888;151.150;2023-05-20T00:47:52;2.05;;;0.95;;
44046;SDS011;29713;-33.888;151.150;2023-05-20T00:50:24;2.53;;;1.25;;
44046;SDS011;29713;-33.888;151.150;2023-05-20T00:52:51;3.53;;;1.40;;
44046;SDS011;29713;-33.888;151.150;2023-05-20T00:55:20;2.25;;;1.38;;
44046;SDS011;29713;-33.888;151.150;2023-05-20T00:57:48;1.00;;;0.80;;
44046;SDS011;29713;-33.888;151.150;2023-05-20T01:00:16;1.10;;;0.60;;
44046;SDS011;29713;-33.888;151.150;2023-05-20T01:02:44;1.55;;;0.70;;
44046;SDS011;29713;-33.888;151.150;2023-05-20T01:05:11;2.58;;;0.63;;
44046;SDS011;29713;-33.888;151.150;2023-05-20T01:07:38;2.85;;;0.75;;
44046;SDS011;29713;-33.888;151.150;2023-05-20T01:10:06;2.90;;;0.40;;
44046;SDS011;29713;-33.888;151.150;2023-05-20T01:12:36;3.70;;;0.45;;
44046;SDS011;29713;-33.888;151.150;2023-05-20T01:15:14;1.70;;;0.50;;
44046;SDS011;29713;-33.888;151.150;2023-05-20T01:17:43;1.98;;;0.57;;
44046;SDS011;29713;-33.888;151.150;2023-05-20T01:20:16;2.28;;;0.50;;
44046;SDS011;29713;-33.888;151.150;2023-05-20T01:22:55;0.60;;;0.50;;
44046;SDS011;29713;-33.888;151.150;2023-05-20T01:25:22;1.90;;;0.50;;
44046;SDS011;29713;-33.888;151.150;2023-05-20T01:27:51;1.38;;;0.70;;
44046;SDS011;29713;-33.888;151.150;2023-05-20T01:30:20;1.10;;;0.70;;
44046;SDS011;29713;-33.888;151.150;2023-05-20T01:32:53;1.85;;;0.85;;
44046;SDS011;29713;-33.888;151.150;2023-05-20T01:35:23;1.95;;;0.60;;
44046;SDS011;29713;-33.888;151.150;2023-05-20T01:37:51;0.60;;;0.60;;
44046;SDS011;29713;-33.888;151.150;2023-05-20T01:40:20;1.73;;;0.65;;
44046;SDS011;29713;-33.888;151.150;2023-05-20T01:42:48;0.85;;;0.60;;
44046;SDS011;29713;-33.888;151.150;2023-05-20T01:45:19;1.40;;;0.70;;
44046;SDS011;29713;-33.888;151.150;2023-05-20T01:47:49;0.90;;;0.70;;
44046;SDS011;29713;-33.888;151.150;2023-05-20T01:50:16;1.20;;;0.60;;
44046;SDS011;29713;-33.888;151.150;2023-05-20T01:52:44;2.22;;;0.60;;
44046;SDS011;29713;-33.888;151.150;2023-05-20T01:55:11;1.90;;;0.60;;
44046;SDS011;29713;-33.888;151.150;2023-05-20T01:57:38;1.48;;;0.60;;
44046;SDS011;29713;-33.888;151.150;2023-05-20T02:00:06;0.93;;;0.60;;
44046;SDS011;29713;-33.888;151.150;2023-05-20T02:02:34;3.88;;;0.68;;
44046;SDS011;29713;-33.888;151.150;2023-05-20T02:05:01;0.70;;;0.50;;
44046;SDS011;29713;-33.888;151.150;2023-05-20T02:07:28;1.77;;;0.55;;
44046;SDS011;29713;-33.888;151.150;2023-05-20T02:09:56;1.35;;;0.70;;
44046;SDS011;29713;-33.888;151.150;2023-05-20T02:12:24;0.82;;;0.60;;
44046;SDS011;29713;-33.888;151.150;2023-05-20T02:14:51;1.75;;;0.60;;
44046;SDS011;29713;-33.888;151.150;2023-05-20T02:17:19;3.60;;;0.73;;
44046;SDS011;29713;-33.888;151.150;2023-05-20T02:19:47;0.70;;;0.47;;
44046;SDS011;29713;-33.888;151.150;2023-05-20T02:22:14;2.42;;;0.60;;
44046;SDS011;29713;-33.888;151.150;2023-05-20T02:24:41;1.30;;;0.80;;
44046;SDS011;29713;-33.888;151.150;2023-05-20T02:27:09;0.85;;;0.52;;
44046;SDS011;29713;-33.888;151.150;2023-05-20T02:29:37;0.63;;;0.60;;
44046;SDS011;29713;-33.888;151.150;2023-05-20T02:32:04;0.98;;;0.50;;
44046;SDS011;29713;-33.888;151.150;2023-05-20T02:34:33;1.00;;;0.70;;
44046;SDS011;29713;-33.888;151.150;2023-05-20T02:37:00;1.42;;;0.77;;
44046;SDS011;29713;-33.888;151.150;2023-05-20T02:39:28;0.60;;;0.60;;
44046;SDS011;29713;-33.888;151.150;2023-05-20T02:41:55;0.70;;;0.43;;
44046;SDS011;29713;-33.888;151.150;2023-05-20T02:44:23;2.17;;;0.68;;
44046;SDS011;29713;-33.888;151.150;2023-05-20T02:46:50;2.78;;;0.70;;
44046;SDS011;29713;-33.888;151.150;2023-05-20T02:49:17;2.65;;;0.80;;
44046;SDS011;29713;-33.888;151.150;2023-05-20T02:51:45;1.30;;;0.60;;
44046;SDS011;29713;-33.888;151.150;2023-05-20T02:54:12;1.73;;;0.40;;
44046;SDS011;29713;-33.888;151.150;2023-05-20T02:56:39;1.20;;;0.63;;
44046;SDS011;29713;-33.888;151.150;2023-05-20T02:59:07;1.33;;;0.45;;
44046;SDS011;29713;-33.888;151.150;2023-05-20T03:01:34;0.90;;;0.50;;
44046;SDS011;29713;-33.888;151.150;2023-05-20T03:04:02;3.22;;;0.60;;
44046;SDS011;29713;-33.888;151.150;2023-05-20T03:06:29;1.85;;;0.60;;
44046;SDS011;29713;-33.888;151.150;2023-05-20T03:08:57;1.48;;;0.50;;
44046;SDS011;29713;-33.888;151.150;2023-05-20T03:11:24;1.13;;;0.47;;
44046;SDS011;29713;-33.888;151.150;2023-05-20T03:13:52;0.70;;;0.50;;
44046;SDS011;29713;-33.888;151.150;2023-05-20T03:16:19;1.10;;;0.50;;
44046;SDS011;29713;-33.888;151.150;2023-05-20T03:18:46;3.42;;;0.80;;
44046;SDS011;29713;-33.888;151.150;2023-05-20T03:21:14;1.00;;;0.43;;
44046;SDS011;29713;-33.888;151.150;2023-05-20T03:23:41;3.40;;;0.50;;
44046;SDS011;29713;-33.888;151.150;2023-05-20T03:26:09;1.10;;;0.60;;
44046;SDS011;29713;-33.888;151.150;2023-05-20T03:28:36;0.82;;;0.47;;
44046;SDS011;29713;-33.888;151.150;2023-05-20T03:31:03;0.47;;;0.47;;
44046;SDS011;29713;-33.888;151.150;2023-05-20T03:33:32;1.48;;;0.40;;
44046;SDS011;29713;-33.888;151.150;2023-05-20T03:36:00;1.40;;;0.65;;
44046;SDS011;29713;-33.888;151.150;2023-05-20T03:38:27;0.70;;;0.45;;
44046;SDS011;29713;-33.888;151.150;2023-05-20T03:40:55;0.50;;;0.50;;
44046;SDS011;29713;-33.888;151.150;2023-05-20T03:43:22;0.55;;;0.47;;
44046;SDS011;29713;-33.888;151.150;2023-05-20T03:45:50;1.67;;;0.73;;
44046;SDS011;29713;-33.888;151.150;2023-05-20T03:48:17;1.10;;;0.45;;
44046;SDS011;29713;-33.888;151.150;2023-05-20T03:50:45;1.63;;;0.70;;
44046;SDS011;29713;-33.888;151.150;2023-05-20T03:53:12;0.77;;;0.50;;
44046;SDS011;29713;-33.888;151.150;2023-05-20T03:55:39;1.48;;;0.50;;
44046;SDS011;29713;-33.888;151.150;2023-05-20T03:58:08;0.85;;;0.50;;
44046;SDS011;29713;-33.888;151.150;2023-05-20T04:00:35;2.75;;;0.50;;
44046;SDS011;29713;-33.888;151.150;2023-05-20T04:03:02;1.15;;;0.60;;
44046;SDS011;29713;-33.888;151.150;2023-05-20T04:05:30;0.63;;;0.47;;
44046;SDS011;29713;-33.888;151.150;2023-05-20T04:07:57;0.77;;;0.47;;
44046;SDS011;29713;-33.888;151.150;2023-05-20T04:10:25;1.00;;;0.50;;
44046;SDS011;29713;-33.888;151.150;2023-05-20T04:12:52;0.65;;;0.57;;
44046;SDS011;29713;-33.888;151.150;2023-05-20T04:15:19;0.40;;;0.40;;
44046;SDS011;29713;-33.888;151.150;2023-05-20T04:17:48;1.05;;;0.50;;
44046;SDS011;29713;-33.888;151.150;2023-05-20T04:20:17;2.35;;;0.40;;
44046;SDS011;29713;-33.888;151.150;2023-05-20T04:22:44;0.68;;;0.52;;
44046;SDS011;29713;-33.888;151.150;2023-05-20T04:25:12;0.93;;;0.50;;
44046;SDS011;29713;-33.888;151.150;2023-05-20T04:27:40;0.40;;;0.40;;
44046;SDS011;29713;-33.888;151.150;2023-05-20T04:30:08;0.47;;;0.40;;
44046;SDS011;29713;-33.888;151.150;2023-05-20T04:32:36;1.48;;;0.98;;
44046;SDS011;29713;-33.888;151.150;2023-05-20T04:35:03;0.63;;;0.40;;
44046;SDS011;29713;-33.888;151.150;2023-05-20T04:37:36;1.05;;;0.40;;
44046;SDS011;29713;-33.888;151.150;2023-05-20T04:40:04;0.70;;;0.50;;
44046;SDS011;29713;-33.888;151.150;2023-05-20T04:42:33;2.25;;;0.40;;
44046;SDS011;29713;-33.888;151.150;2023-05-20T04:45:02;1.58;;;0.40;;
44046;SDS011;29713;-33.888;151.150;2023-05-20T04:47:30;0.40;;;0.40;;
44046;SDS011;29713;-33.888;151.150;2023-05-20T04:50:04;1.60;;;0.30;;
44046;SDS011;29713;-33.888;151.150;2023-05-20T04:52:36;0.93;;;0.60;;
44046;SDS011;29713;-33.888;151.150;2023-05-20T04:55:05;0.30;;;0.30;;
44046;SDS011;29713;-33.888;151.150;2023-05-20T04:57:35;0.32;;;0.32;;
44046;SDS011;29713;-33.888;151.150;2023-05-20T05:00:06;1.13;;;0.40;;
44046;SDS011;29713;-33.888;151.150;2023-05-20T05:02:35;0.30;;;0.30;;
44046;SDS011;29713;-33.888;151.150;2023-05-20T05:05:03;0.50;;;0.50;;
44046;SDS011;29713;-33.888;151.150;2023-05-20T05:07:30;1.00;;;0.38;;
44046;SDS011;29713;-33.888;151.150;2023-05-20T05:09:58;0.40;;;0.40;;
44046;SDS011;29713;-33.888;151.150;2023-05-20T05:12:25;0.40;;;0.40;;
44046;SDS011;29713;-33.888;151.150;2023-05-20T05:14:52;0.30;;;0.30;;
44046;SDS011;29713;-33.888;151.150;2023-05-20T05:17:20;1.02;;;0.40;;
44046;SDS011;29713;-33.888;151.150;2023-05-20T05:19:47;0.47;;;0.40;;
44046;SDS011;29713;-33.888;151.150;2023-05-20T05:22:15;0.40;;;0.40;;
44046;SDS011;29713;-33.888;151.150;2023-05-20T05:24:42;2.45;;;0.60;;
44046;SDS011;29713;-33.888;151.150;2023-05-20T05:27:10;1.05;;;0.50;;
44046;SDS011;29713;-33.888;151.150;2023-05-20T05:29:37;0.50;;;0.40;;
44046;SDS011;29713;-33.888;151.150;2023-05-20T05:32:04;1.17;;;0.50;;
44046;SDS011;29713;-33.888;151.150;2023-05-20T05:34:32;1.23;;;0.50;;
44046;SDS011;29713;-33.888;151.150;2023-05-20T05:37:00;0.40;;;0.30;;
44046;SDS011;29713;-33.888;151.150;2023-05-20T05:39:27;1.05;;;0.50;;
44046;SDS011;29713;-33.888;151.150;2023-05-20T05:41:54;0.57;;;0.32;;
44046;SDS011;29713;-33.888;151.150;2023-05-20T05:44:22;0.77;;;0.30;;
44046;SDS011;29713;-33.888;151.150;2023-05-20T05:46:49;0.40;;;0.40;;
44046;SDS011;29713;-33.888;151.150;2023-05-20T05:49:16;1.88;;;0.38;;
44046;SDS011;29713;-33.888;151.150;2023-05-20T05:51:44;0.30;;;0.30;;
44046;SDS011;29713;-33.888;151.150;2023-05-20T05:54:11;0.50;;;0.40;;
44046;SDS011;29713;-33.888;151.150;2023-05-20T05:56:38;0.85;;;0.50;;
44046;SDS011;29713;-33.888;151.150;2023-05-20T05:59:05;0.47;;;0.38;;
44046;SDS011;29713;-33.888;151.150;2023-05-20T06:01:33;1.52;;;0.38;;
44046;SDS011;29713;-33.888;151.150;2023-05-20T06:04:01;0.30;;;0.20;;
44046;SDS011;29713;-33.888;151.150;2023-05-20T06:06:29;0.40;;;0.30;;
44046;SDS011;29713;-33.888;151.150;2023-05-20T06:08:57;2.95;;;0.40;;
44046;SDS011;29713;-33.888;151.150;2023-05-20T06:11:24;1.02;;;0.40;;
44046;SDS011;29713;-33.888;151.150;2023-05-20T06:13:52;0.75;;;0.60;;
44046;SDS011;29713;-33.888;151.150;2023-05-20T06:16:19;1.40;;;0.70;;
44046;SDS011;29713;-33.888;151.150;2023-05-20T06:18:47;0.85;;;0.57;;
44046;SDS011;29713;-33.888;151.150;2023-05-20T06:21:17;0.40;;;0.40;;
44046;SDS011;29713;-33.888;151.150;2023-05-20T06:23:45;1.73;;;0.60;;
44046;SDS011;29713;-33.888;151.150;2023-05-20T06:26:12;0.80;;;0.50;;
44046;SDS011;29713;-33.888;151.150;2023-05-20T06:28:39;0.52;;;0.45;;
44046;SDS011;29713;-33.888;151.150;2023-05-20T06:31:07;0.93;;;0.60;;
44046;SDS011;29713;-33.888;151.150;2023-05-20T06:33:34;0.70;;;0.43;;
44046;SDS011;29713;-33.888;151.150;2023-05-20T06:36:02;0.55;;;0.40;;
44046;SDS011;29713;-33.888;151.150;2023-05-20T06:38:30;3.53;;;0.60;;
44046;SDS011;29713;-33.888;151.150;2023-05-20T06:40:57;1.02;;;0.70;;
44046;SDS011;29713;-33.888;151.150;2023-05-20T06:43:24;1.80;;;0.68;;
44046;SDS011;29713;-33.888;151.150;2023-05-20T06:45:52;0.57;;;0.55;;
44046;SDS011;29713;-33.888;151.150;2023-05-20T06:48:19;1.57;;;0.80;;
44046;SDS011;29713;-33.888;151.150;2023-05-20T06:50:47;1.48;;;0.75;;
44046;SDS011;29713;-33.888;151.150;2023-05-20T06:53:15;0.85;;;0.60;;
44046;SDS011;29713;-33.888;151.150;2023-05-20T06:55:42;0.65;;;0.60;;
44046;SDS011;29713;-33.888;151.150;2023-05-20T06:58:09;0.80;;;0.50;;
44046;SDS011;29713;-33.888;151.150;2023-05-20T07:00:37;1.10;;;0.63;;
44046;SDS011;29713;-33.888;151.150;2023-05-20T07:03:04;0.88;;;0.50;;
44046;SDS011;29713;-33.888;151.150;2023-05-20T07:05:31;0.65;;;0.45;;
44046;SDS011;29713;-33.888;151.150;2023-05-20T07:07:59;1.20;;;0.80;;
44046;SDS011;29713;-33.888;151.150;2023-05-20T07:10:26;1.73;;;0.50;;
44046;SDS011;29713;-33.888;151.150;2023-05-20T07:12:54;2.13;;;0.50;;
44046;SDS011;29713;-33.888;151.150;2023-05-20T07:15:21;1.83;;;0.63;;
44046;SDS011;29713;-33.888;151.150;2023-05-20T07:17:49;0.95;;;0.60;;
44046;SDS011;29713;-33.888;151.150;2023-05-20T07:20:16;0.95;;;0.60;;
44046;SDS011;29713;-33.888;151.150;2023-05-20T07:22:44;2.25;;;0.80;;
44046;SDS011;29713;-33.888;151.150;2023-05-20T07:25:13;1.42;;;0.60;;
44046;SDS011;29713;-33.888;151.150;2023-05-20T07:27:40;1.40;;;0.80;;
44046;SDS011;29713;-33.888;151.150;2023-05-20T07:30:08;1.00;;;0.53;;
44046;SDS011;29713;-33.888;151.150;2023-05-20T07:32:35;1.03;;;0.67;;
44046;SDS011;29713;-33.888;151.150;2023-05-20T07:35:03;1.53;;;0.83;;
44046;SDS011;29713;-33.888;151.150;2023-05-20T07:37:31;0.77;;;0.77;;
44046;SDS011;29713;-33.888;151.150;2023-05-20T07:39:58;3.63;;;1.00;;
44046;SDS011;29713;-33.888;151.150;2023-05-20T07:42:25;1.87;;;1.13;;
44046;SDS011;29713;-33.888;151.150;2023-05-20T07:44:53;3.03;;;1.20;;
44046;SDS011;29713;-33.888;151.150;2023-05-20T07:47:20;2.60;;;1.10;;
44046;SDS011;29713;-33.888;151.150;2023-05-20T07:49:47;1.30;;;0.90;;
44046;SDS011;29713;-33.888;151.150;2023-05-20T07:52:15;2.33;;;1.07;;
44046;SDS011;29713;-33.888;151.150;2023-05-20T07:54:42;1.13;;;0.80;;
44046;SDS011;29713;-33.888;151.150;2023-05-20T07:57:09;1.30;;;1.00;;
44046;SDS011;29713;-33.888;151.150;2023-05-20T07:59:37;2.10;;;1.30;;
44046;SDS011;29713;-33.888;151.150;2023-05-20T08:02:04;4.30;;;1.77;;
44046;SDS011;29713;-33.888;151.150;2023-05-20T08:04:32;5.83;;;2.57;;
44046;SDS011;29713;-33.888;151.150;2023-05-20T08:06:59;4.40;;;2.87;;
44046;SDS011;29713;-33.888;151.150;2023-05-20T08:09:27;3.10;;;2.10;;
44046;SDS011;29713;-33.888;151.150;2023-05-20T08:11:55;2.80;;;1.90;;
44046;SDS011;29713;-33.888;151.150;2023-05-20T08:14:22;3.93;;;1.77;;
44046;SDS011;29713;-33.888;151.150;2023-05-20T08:16:49;3.83;;;1.80;;
44046;SDS011;29713;-33.888;151.150;2023-05-20T08:19:17;3.50;;;2.15;;
44046;SDS011;29713;-33.888;151.150;2023-05-20T08:21:47;2.43;;;1.87;;
44046;SDS011;29713;-33.888;151.150;2023-05-20T08:24:15;3.53;;;1.67;;
44046;SDS011;29713;-33.888;151.150;2023-05-20T08:26:42;3.67;;;1.70;;
44046;SDS011;29713;-33.888;151.150;2023-05-20T08:29:09;6.27;;;2.50;;
44046;SDS011;29713;-33.888;151.150;2023-05-20T08:31:39;4.67;;;2.17;;
44046;SDS011;29713;-33.888;151.150;2023-05-20T08:34:07;4.27;;;2.30;;
44046;SDS011;29713;-33.888;151.150;2023-05-20T08:36:34;4.17;;;1.93;;
44046;SDS011;29713;-33.888;151.150;2023-05-20T08:39:02;3.60;;;2.23;;
44046;SDS011;29713;-33.888;151.150;2023-05-20T08:41:30;2.03;;;1.77;;
44046;SDS011;29713;-33.888;151.150;2023-05-20T08:43:58;4.57;;;2.03;;
44046;SDS011;29713;-33.888;151.150;2023-05-20T08:46:27;4.27;;;2.13;;
44046;SDS011;29713;-33.888;151.150;2023-05-20T08:48:58;2.17;;;1.60;;
44046;SDS011;29713;-33.888;151.150;2023-05-20T08:51:25;2.97;;;1.80;;
44046;SDS011;29713;-33.888;151.150;2023-05-20T08:53:54;2.97;;;2.10;;
44046;SDS011;29713;-33.888;151.150;2023-05-20T08:56:21;4.07;;;2.63;;
44046;SDS011;29713;-33.888;151.150;2023-05-20T08:58:51;4.10;;;2.50;;
44046;SDS011;29713;-33.888;151.150;2023-05-20T09:01:28;3.30;;;2.43;;
44046;SDS011;29713;-33.888;151.150;2023-05-20T09:03:55;4.23;;;2.50;;
44046;SDS011;29713;-33.888;151.150;2023-05-20T09:06:25;4.63;;;3.10;;
44046;SDS011;29713;-33.888;151.150;2023-05-20T09:08:53;21.93;;;13.40;;
44046;SDS011;29713;-33.888;151.150;2023-05-20T09:11:20;92.23;;;51.57;;
44046;SDS011;29713;-33.888;151.150;2023-05-20T09:13:49;102.13;;;56.73;;
44046;SDS011;29713;-33.888;151.150;2023-05-20T09:16:16;41.50;;;24.67;;
44046;SDS011;29713;-33.888;151.150;2023-05-20T09:18:44;20.33;;;12.33;;
44046;SDS011;29713;-33.888;151.150;2023-05-20T09:21:15;11.47;;;7.30;;
44046;SDS011;29713;-33.888;151.150;2023-05-20T09:23:46;7.87;;;4.83;;
44046;SDS011;29713;-33.888;151.150;2023-05-20T09:26:13;6.50;;;4.57;;
44046;SDS011;29713;-33.888;151.150;2023-05-20T09:28:42;7.40;;;4.20;;
44046;SDS011;29713;-33.888;151.150;2023-05-20T09:31:12;6.33;;;3.60;;
44046;SDS011;29713;-33.888;151.150;2023-05-20T09:33:39;6.47;;;3.93;;
44046;SDS011;29713;-33.888;151.150;2023-05-20T09:36:07;8.10;;;4.63;;
44046;SDS011;29713;-33.888;151.150;2023-05-20T09:38:36;9.13;;;4.63;;
44046;SDS011;29713;-33.888;151.150;2023-05-20T09:41:07;7.83;;;5.33;;
44046;SDS011;29713;-33.888;151.150;2023-05-20T09:43:41;7.93;;;5.33;;
44046;SDS011;29713;-33.888;151.150;2023-05-20T09:46:09;9.43;;;5.70;;
44046;SDS011;29713;-33.888;151.150;2023-05-20T09:48:37;10.77;;;6.67;;
44046;SDS011;29713;-33.888;151.150;2023-05-20T09:51:05;10.50;;;7.07;;
44046;SDS011;29713;-33.888;151.150;2023-05-20T09:53:33;10.53;;;6.37;;
44046;SDS011;29713;-33.888;151.150;2023-05-20T09:56:01;10.97;;;6.67;;
44046;SDS011;29713;-33.888;151.150;2023-05-20T09:58:28;11.07;;;6.13;;
44046;SDS011;29713;-33.888;151.150;2023-05-20T10:00:57;12.50;;;7.33;;
44046;SDS011;29713;-33.888;151.150;2023-05-20T10:03:25;9.73;;;6.27;;
44046;SDS011;29713;-33.888;151.150;2023-05-20T10:19:45;10.00;;;6.27;;
44046;SDS011;29713;-33.888;151.150;2023-05-20T10:22:24;12.80;;;6.83;;
44046;SDS011;29713;-33.888;151.150;2023-05-20T10:24:59;10.53;;;6.13;;
44046;SDS011;29713;-33.888;151.150;2023-05-20T10:27:45;9.40;;;6.13;;
44046;SDS011;29713;-33.888;151.150;2023-05-20T10:30:16;10.37;;;6.50;;
44046;SDS011;29713;-33.888;151.150;2023-05-20T10:32:50;11.63;;;6.10;;
44046;SDS011;29713;-33.888;151.150;2023-05-20T10:35:25;12.37;;;6.67;;
44046;SDS011;29713;-33.888;151.150;2023-05-20T10:37:53;8.77;;;5.60;;
44046;SDS011;29713;-33.888;151.150;2023-05-20T10:40:32;10.80;;;6.83;;
44046;SDS011;29713;-33.888;151.150;2023-05-20T10:43:07;10.07;;;6.13;;
44046;SDS011;29713;-33.888;151.150;2023-05-20T10:45:50;10.00;;;6.23;;
44046;SDS011;29713;-33.888;151.150;2023-05-20T10:48:28;10.30;;;5.50;;
44046;SDS011;29713;-33.888;151.150;2023-05-20T10:50:57;9.50;;;5.13;;
44046;SDS011;29713;-33.888;151.150;2023-05-20T10:53:38;7.20;;;5.20;;
44046;SDS011;29713;-33.888;151.150;2023-05-20T10:56:16;9.73;;;5.00;;
44046;SDS011;29713;-33.888;151.150;2023-05-20T10:58:48;8.77;;;4.77;;
44046;SDS011;29713;-33.888;151.150;2023-05-20T11:01:17;7.13;;;4.30;;
44046;SDS011;29713;-33.888;151.150;2023-05-20T11:03:49;7.67;;;4.63;;
44046;SDS011;29713;-33.888;151.150;2023-05-20T11:06:24;8.07;;;4.90;;
44046;SDS011;29713;-33.888;151.150;2023-05-20T11:08:55;7.70;;;4.40;;
44046;SDS011;29713;-33.888;151.150;2023-05-20T11:11:32;7.47;;;4.77;;
44046;SDS011;29713;-33.888;151.150;2023-05-20T11:14:03;9.67;;;5.30;;
44046;SDS011;29713;-33.888;151.150;2023-05-20T11:16:30;10.13;;;5.20;;
44046;SDS011;29713;-33.888;151.150;2023-05-20T11:18:57;9.93;;;5.10;;
44046;SDS011;29713;-33.888;151.150;2023-05-20T11:21:25;9.63;;;5.87;;
44046;SDS011;29713;-33.888;151.150;2023-05-20T11:23:53;12.67;;;7.60;;
44046;SDS011;29713;-33.888;151.150;2023-05-20T11:26:21;15.33;;;9.93;;
44046;SDS011;29713;-33.888;151.150;2023-05-20T11:28:48;11.60;;;6.30;;
44046;SDS011;29713;-33.888;151.150;2023-05-20T11:31:16;10.30;;;6.30;;
44046;SDS011;29713;-33.888;151.150;2023-05-20T11:33:44;9.03;;;5.53;;
44046;SDS011;29713;-33.888;151.150;2023-05-20T11:36:11;6.63;;;4.93;;
44046;SDS011;29713;-33.888;151.150;2023-05-20T11:38:39;7.17;;;4.63;;
44046;SDS011;29713;-33.888;151.150;2023-05-20T11:41:07;6.13;;;4.00;;
44046;SDS011;29713;-33.888;151.150;2023-05-20T11:43:34;7.63;;;4.27;;
44046;SDS011;29713;-33.888;151.150;2023-05-20T11:46:03;8.17;;;4.37;;
44046;SDS011;29713;-33.888;151.150;2023-05-20T11:48:30;6.30;;;4.20;;
44046;SDS011;29713;-33.888;151.150;2023-05-20T11:50:58;8.63;;;4.20;;
44046;SDS011;29713;-33.888;151.150;2023-05-20T11:53:26;9.30;;;4.20;;
44046;SDS011;29713;-33.888;151.150;2023-05-20T11:55:57;6.50;;;4.83;;
44046;SDS011;29713;-33.888;151.150;2023-05-20T11:58:26;8.87;;;4.87;;
44046;SDS011;29713;-33.888;151.150;2023-05-20T12:00:56;9.03;;;6.37;;
44046;SDS011;29713;-33.888;151.150;2023-05-20T12:03:23;11.17;;;6.10;;
44046;SDS011;29713;-33.888;151.150;2023-05-20T12:05:51;9.07;;;4.77;;
44046;SDS011;29713;-33.888;151.150;2023-05-20T12:08:18;8.43;;;5.07;;
44046;SDS011;29713;-33.888;151.150;2023-05-20T12:10:47;5.47;;;4.13;;
44046;SDS011;29713;-33.888;151.150;2023-05-20T12:13:14;8.53;;;4.80;;
44046;SDS011;29713;-33.888;151.150;2023-05-20T12:15:42;6.57;;;4.07;;
44046;SDS011;29713;-33.888;151.150;2023-05-20T12:18:09;5.70;;;3.47;;
44046;SDS011;29713;-33.888;151.150;2023-05-20T12:20:37;6.50;;;4.00;;
44046;SDS011;29713;-33.888;151.150;2023-05-20T12:23:05;6.37;;;3.40;;
44046;SDS011;29713;-33.888;151.150;2023-05-20T12:25:32;5.33;;;3.17;;
44046;SDS011;29713;-33.888;151.150;2023-05-20T12:28:00;7.73;;;3.20;;
44046;SDS011;29713;-33.888;151.150;2023-05-20T12:30:28;5.73;;;2.93;;
44046;SDS011;29713;-33.888;151.150;2023-05-20T12:32:55;5.57;;;3.13;;
44046;SDS011;29713;-33.888;151.150;2023-05-20T12:35:41;5.53;;;2.90;;
44046;SDS011;29713;-33.888;151.150;2023-05-20T12:38:09;6.50;;;2.90;;
44046;SDS011;29713;-33.888;151.150;2023-05-20T12:40:36;4.63;;;2.80;;
44046;SDS011;29713;-33.888;151.150;2023-05-20T12:43:03;4.67;;;2.70;;
44046;SDS011;29713;-33.888;151.150;2023-05-20T12:45:31;4.70;;;2.40;;
44046;SDS011;29713;-33.888;151.150;2023-05-20T12:47:58;5.07;;;2.80;;
44046;SDS011;29713;-33.888;151.150;2023-05-20T12:50:26;3.63;;;2.47;;
44046;SDS011;29713;-33.888;151.150;2023-05-20T12:52:54;3.30;;;2.53;;
44046;SDS011;29713;-33.888;151.150;2023-05-20T12:55:21;3.13;;;2.20;;
44046;SDS011;29713;-33.888;151.150;2023-05-20T12:57:48;3.73;;;2.13;;
44046;SDS011;29713;-33.888;151.150;2023-05-20T13:00:16;4.23;;;2.30;;
44046;SDS011;29713;-33.888;151.150;2023-05-20T13:02:44;3.37;;;2.27;;
44046;SDS011;29713;-33.888;151.150;2023-05-20T13:05:12;4.77;;;2.63;;
44046;SDS011;29713;-33.888;151.150;2023-05-20T13:07:39;4.33;;;2.83;;
44046;SDS011;29713;-33.888;151.150;2023-05-20T13:10:07;5.93;;;3.17;;
44046;SDS011;29713;-33.888;151.150;2023-05-20T13:12:35;3.73;;;2.93;;
44046;SDS011;29713;-33.888;151.150;2023-05-20T13:15:03;5.00;;;2.80;;
44046;SDS011;29713;-33.888;151.150;2023-05-20T13:17:31;2.70;;;2.13;;
44046;SDS011;29713;-33.888;151.150;2023-05-20T13:19:58;3.17;;;2.03;;
44046;SDS011;29713;-33.888;151.150;2023-05-20T13:22:25;3.17;;;2.30;;
44046;SDS011;29713;-33.888;151.150;2023-05-20T13:24:52;3.20;;;2.20;;
44046;SDS011;29713;-33.888;151.150;2023-05-20T13:27:20;2.33;;;1.80;;
44046;SDS011;29713;-33.888;151.150;2023-05-20T13:29:47;2.63;;;1.90;;
44046;SDS011;29713;-33.888;151.150;2023-05-20T13:32:15;3.27;;;2.10;;
44046;SDS011;29713;-33.888;151.150;2023-05-20T13:34:42;2.30;;;1.70;;
44046;SDS011;29713;-33.888;151.150;2023-05-20T13:37:09;4.93;;;1.90;;
44046;SDS011;29713;-33.888;151.150;2023-05-20T13:39:37;3.13;;;2.17;;
44046;SDS011;29713;-33.888;151.150;2023-05-20T13:42:05;4.93;;;2.60;;
44046;SDS011;29713;-33.888;151.150;2023-05-20T13:44:32;4.07;;;2.00;;
44046;SDS011;29713;-33.888;151.150;2023-05-20T13:46:59;2.50;;;1.73;;
44046;SDS011;29713;-33.888;151.150;2023-05-20T13:49:27;5.93;;;2.47;;
44046;SDS011;29713;-33.888;151.150;2023-05-20T13:51:54;3.97;;;1.90;;
44046;SDS011;29713;-33.888;151.150;2023-05-20T13:54:21;5.50;;;2.10;;
44046;SDS011;29713;-33.888;151.150;2023-05-20T13:56:48;4.80;;;1.67;;
44046;SDS011;29713;-33.888;151.150;2023-05-20T13:59:16;3.87;;;1.77;;
44046;SDS011;29713;-33.888;151.150;2023-05-20T14:01:43;5.93;;;2.07;;
44046;SDS011;29713;-33.888;151.150;2023-05-20T14:04:11;4.30;;;1.93;;
44046;SDS011;29713;-33.888;151.150;2023-05-20T14:06:38;4.00;;;1.97;;
44046;SDS011;29713;-33.888;151.150;2023-05-20T14:09:06;3.87;;;1.73;;
44046;SDS011;29713;-33.888;151.150;2023-05-20T14:11:33;3.63;;;2.33;;
44046;SDS011;29713;-33.888;151.150;2023-05-20T14:14:01;7.50;;;2.40;;
44046;SDS011;29713;-33.888;151.150;2023-05-20T14:16:28;5.17;;;2.00;;
44046;SDS011;29713;-33.888;151.150;2023-05-20T14:18:56;5.07;;;2.03;;
44046;SDS011;29713;-33.888;151.150;2023-05-20T14:21:23;5.97;;;2.27;;
44046;SDS011;29713;-33.888;151.150;2023-05-20T14:23:51;6.57;;;1.90;;
44046;SDS011;29713;-33.888;151.150;2023-05-20T14:26:18;4.83;;;2.30;;
44046;SDS011;29713;-33.888;151.150;2023-05-20T14:28:47;5.60;;;1.63;;